createdAt,value
2022-09-28T00:00:13.863Z,96529.50
2022-09-28T00:03:16.483Z,96518.78
2022-09-28T00:06:22.181Z,96507.78
2022-09-28T00:09:24.860Z,96501.22
2022-09-28T00:12:29.741Z,96499.16
2022-09-28T00:15:33.274Z,96488.75
2022-09-28T00:18:36.449Z,96482.00
2022-09-28T00:21:40.671Z,96482.75
2022-09-28T00:24:43.618Z,96482.47
2022-09-28T00:27:52.041Z,96473.94
2022-09-28T00:30:56.724Z,96463.53
2022-09-28T00:34:00.344Z,96450.63
2022-09-28T00:37:05.078Z,96447.94
2022-09-28T00:40:08.564Z,96450.94
2022-09-28T00:43:22.284Z,96442.38
2022-09-28T00:46:32.086Z,96437.69
2022-09-28T00:49:42.793Z,96418.66
2022-09-28T00:52:49.852Z,96409.50
2022-09-28T00:55:55.667Z,96413.13
2022-09-28T00:59:00.934Z,96399.44
2022-09-28T01:02:04.005Z,96385.72
2022-09-28T01:05:10.281Z,96386.97
2022-09-28T01:08:14.350Z,96371.53
2022-09-28T01:11:20.261Z,96373.13
2022-09-28T01:14:28.562Z,96359.25
2022-09-28T01:17:45.378Z,96356.88
2022-09-28T01:21:12.646Z,96357.34
2022-09-28T01:24:33.132Z,96355.16
2022-09-28T01:27:45.341Z,96341.28
2022-09-28T01:30:58.696Z,96330.56
2022-09-28T01:34:13.802Z,96322.53
2022-09-28T01:37:26.076Z,96314.94
2022-09-28T01:40:35.655Z,96313.22
2022-09-28T01:43:51.394Z,96313.22
2022-09-28T01:47:01.924Z,96311.78
2022-09-28T01:50:15.506Z,96293.16
2022-09-28T01:53:26.868Z,96290.31
2022-09-28T01:56:40.033Z,96278.63
2022-09-28T01:59:58.135Z,96272.31
2022-09-28T02:03:17.552Z,96267.09
2022-09-28T02:06:32.765Z,96261.56
2022-09-28T02:09:46.657Z,96260.75
2022-09-28T02:12:58.069Z,96254.47
2022-09-28T02:16:19.043Z,96253.38
2022-09-28T02:19:28.459Z,96254.59
2022-09-28T02:22:44.055Z,96243.88
2022-09-28T02:25:56.803Z,96242.31
2022-09-28T02:29:05.082Z,96240.41
2022-09-28T02:32:18.020Z,96235.69
2022-09-28T02:35:26.119Z,96235.03
2022-09-28T02:38:34.003Z,96232.81
2022-09-28T02:41:54.558Z,96238.16
2022-09-28T02:45:13.901Z,96232.78
2022-09-28T02:48:55.737Z,96226.78
2022-09-28T02:52:11.872Z,96221.13
2022-09-28T02:55:28.849Z,96223.00
2022-09-28T02:58:43.063Z,96217.63
2022-09-28T03:02:02.792Z,96208.00
2022-09-28T03:05:18.488Z,96214.97
2022-09-28T03:08:30.161Z,96211.47
2022-09-28T03:11:39.525Z,96210.88
2022-09-28T03:14:45.934Z,96193.38
2022-09-28T03:17:55.437Z,96190.03
2022-09-28T03:21:04.968Z,96180.28
2022-09-28T03:24:13.412Z,96180.28
2022-09-28T03:27:20.271Z,96185.47
2022-09-28T03:30:26.630Z,96191.91
2022-09-28T03:33:33.074Z,96186.38
2022-09-28T03:36:42.151Z,96196.31
2022-09-28T03:39:49.207Z,96214.94
2022-09-28T03:42:55.533Z,96254.13
2022-09-28T03:46:05.603Z,96260.31
2022-09-28T03:49:12.835Z,96247.88
2022-09-28T03:52:21.153Z,96248.44
2022-09-28T03:55:27.233Z,96249.56
2022-09-28T03:58:36.552Z,96240.19
2022-09-28T04:01:45.285Z,96238.44
2022-09-28T04:04:54.430Z,96236.41
2022-09-28T04:08:03.348Z,96235.31
2022-09-28T04:11:14.321Z,96236.72
2022-09-28T04:14:22.749Z,96231.38
2022-09-28T04:17:36.491Z,96230.56
2022-09-28T04:20:48.517Z,96235.78
2022-09-28T04:24:00.272Z,96232.16
2022-09-28T04:27:29.072Z,96236.44
2022-09-28T04:30:35.714Z,96235.50
2022-09-28T04:33:42.054Z,96219.91
2022-09-28T04:36:53.916Z,96240.06
2022-09-28T04:40:05.151Z,96245.28
2022-09-28T04:43:11.471Z,96240.53
2022-09-28T04:46:19.229Z,96243.06
2022-09-28T04:49:25.311Z,96244.34
2022-09-28T04:52:31.598Z,96243.22
2022-09-28T04:55:41.458Z,96253.13
2022-09-28T04:58:52.596Z,96251.72
2022-09-28T05:01:59.644Z,96256.63
2022-09-28T05:05:05.984Z,96244.34
2022-09-28T05:08:12.236Z,96253.66
2022-09-28T05:11:21.862Z,96254.44
2022-09-28T05:14:31.098Z,96243.56
2022-09-28T05:17:38.040Z,96256.00
2022-09-28T05:20:51.758Z,96260.28
2022-09-28T05:23:59.056Z,96254.91
2022-09-28T05:27:08.692Z,96258.06
2022-09-28T05:30:15.134Z,96262.97
2022-09-28T05:33:22.153Z,96259.00
2022-09-28T05:36:28.571Z,96254.78
2022-09-28T05:39:35.142Z,96242.00
2022-09-28T05:42:42.945Z,96257.44
2022-09-28T05:45:55.045Z,96258.53
2022-09-28T05:49:03.523Z,96268.00
2022-09-28T05:52:10.520Z,96280.28
2022-09-28T05:55:19.962Z,96269.59
2022-09-28T05:58:30.208Z,96273.19
2022-09-28T06:01:38.719Z,96272.72
2022-09-28T06:04:44.792Z,96275.41
2022-09-28T06:07:51.466Z,96287.06
2022-09-28T06:11:03.884Z,96276.03
2022-09-28T06:14:18.350Z,96282.50
2022-09-28T06:17:25.114Z,96281.25
2022-09-28T06:20:34.887Z,96280.13
2022-09-28T06:23:49.191Z,96290.38
2022-09-28T06:26:56.509Z,96294.78
2022-09-28T06:30:20.431Z,96289.09
2022-09-28T06:33:30.613Z,96295.53
2022-09-28T06:36:39.071Z,96298.22
2022-09-28T06:39:51.611Z,96299.81
2022-09-28T06:43:11.289Z,96304.84
2022-09-28T06:46:23.114Z,96310.69
2022-09-28T06:49:32.274Z,96312.75
2022-09-28T06:52:46.517Z,96310.81
2022-09-28T06:55:56.156Z,96322.00
2022-09-28T06:59:04.920Z,96332.88
2022-09-28T07:02:15.203Z,96330.19
2022-09-28T07:05:27.898Z,96338.25
2022-09-28T07:08:41.070Z,96328.78
2022-09-28T07:11:44.659Z,96339.81
2022-09-28T07:14:48.282Z,96349.44
2022-09-28T07:18:02.537Z,96357.16
2022-09-28T07:21:08.060Z,96364.22
2022-09-28T07:24:14.251Z,96357.56
2022-09-28T07:27:17.385Z,96368.16
2022-09-28T07:30:20.097Z,96368.78
2022-09-28T07:33:29.879Z,96372.06
2022-09-28T07:36:34.948Z,96378.38
2022-09-28T07:39:57.608Z,96380.75
2022-09-28T07:43:05.506Z,96381.22
2022-09-28T07:46:11.827Z,96398.56
2022-09-28T07:49:16.704Z,96403.13
2022-09-28T07:52:19.485Z,96403.59
2022-09-28T07:55:22.075Z,96410.81
2022-09-28T07:58:24.762Z,96410.00
2022-09-28T08:01:27.477Z,96409.22
2022-09-28T08:04:31.609Z,96420.09
2022-09-28T08:07:34.758Z,96420.69
2022-09-28T08:10:38.379Z,96418.47
2022-09-28T08:13:41.729Z,96419.06
2022-09-28T08:16:47.620Z,96417.94
2022-09-28T08:20:11.288Z,96422.84
2022-09-28T08:23:13.922Z,96424.13
2022-09-28T08:26:17.094Z,96419.53
2022-09-28T08:29:19.690Z,96421.56
2022-09-28T08:32:22.353Z,96431.44
2022-09-28T08:35:26.352Z,96427.63
2022-09-28T08:38:33.030Z,96433.63
2022-09-28T08:41:44.152Z,96431.34
2022-09-28T08:44:57.875Z,96433.56
2022-09-28T08:48:22.877Z,96440.78
2022-09-28T08:51:32.910Z,96449.63
2022-09-28T08:54:41.615Z,96448.63
2022-09-28T08:57:49.405Z,96455.09
2022-09-28T09:00:54.150Z,96458.72
2022-09-28T09:03:57.412Z,96456.81
2022-09-28T09:07:20.894Z,96458.84
2022-09-28T09:10:53.015Z,96454.91
2022-09-28T09:14:17.383Z,96459.91
2022-09-28T09:17:30.493Z,96468.41
2022-09-28T09:20:45.293Z,96470.56
2022-09-28T09:23:56.077Z,96475.94
2022-09-28T09:27:06.997Z,96478.00
2022-09-28T09:30:12.710Z,96480.75
2022-09-28T09:33:38.439Z,96486.91
2022-09-28T09:36:56.318Z,96489.75
2022-09-28T09:40:16.346Z,96499.34
2022-09-28T09:43:48.689Z,96498.88
2022-09-28T09:46:56.709Z,96496.66
2022-09-28T09:50:09.042Z,96500.31
2022-09-28T09:53:18.841Z,96509.56
2022-09-28T09:56:34.481Z,96509.09
2022-09-28T09:59:40.949Z,96515.06
2022-09-28T10:02:46.740Z,96514.88
2022-09-28T10:05:57.137Z,96514.75
2022-09-28T10:09:04.900Z,96515.00
2022-09-28T10:12:15.134Z,96509.97
2022-09-28T10:15:23.682Z,96514.16
2022-09-28T10:18:30.058Z,96507.03
2022-09-28T10:21:37.493Z,96502.22
2022-09-28T10:24:45.114Z,96509.97
2022-09-28T10:27:52.557Z,96502.13
2022-09-28T10:30:55.354Z,96499.75
2022-09-28T10:33:59.034Z,96502.81
2022-09-28T10:37:05.497Z,96509.66
2022-09-28T10:40:34.142Z,96507.72
2022-09-28T10:43:40.238Z,96512.13
2022-09-28T10:46:42.988Z,96508.56
2022-09-28T10:49:48.379Z,96505.59
2022-09-28T10:52:51.065Z,96504.81
2022-09-28T10:56:02.606Z,96502.09
2022-09-28T10:59:24.900Z,96508.06
2022-09-28T11:02:35.508Z,96509.19
2022-09-28T11:05:39.808Z,96503.25
2022-09-28T11:08:45.703Z,96507.53
2022-09-28T11:11:48.406Z,96507.88
2022-09-28T11:14:58.433Z,96510.91
2022-09-28T11:18:21.138Z,96510.06
2022-09-28T11:21:27.145Z,96513.22
2022-09-28T11:24:29.879Z,96511.97
2022-09-28T11:27:32.530Z,96502.09
2022-09-28T11:30:45.926Z,96503.41
2022-09-28T11:33:48.980Z,96507.16
2022-09-28T11:37:08.234Z,96507.16
2022-09-28T11:40:30.416Z,96504.13
2022-09-28T11:44:01.144Z,96502.78
2022-09-28T11:47:20.621Z,96500.41
2022-09-28T11:50:29.408Z,96493.47
2022-09-28T11:53:38.434Z,96489.53
2022-09-28T11:56:43.933Z,96491.56
2022-09-28T11:59:56.489Z,96493.03
2022-09-28T12:03:07.177Z,96484.94
2022-09-28T12:06:15.946Z,96494.59
2022-09-28T12:09:24.518Z,96476.97
2022-09-28T12:12:33.388Z,96488.84
2022-09-28T12:16:12.922Z,96490.78
2022-09-28T12:19:16.896Z,96483.91
2022-09-28T12:22:24.178Z,96492.69
2022-09-28T12:25:30.510Z,96486.84
2022-09-28T12:28:39.079Z,96481.09
2022-09-28T12:31:58.074Z,96474.25
2022-09-28T12:35:02.213Z,96474.97
2022-09-28T12:38:28.738Z,96469.47
2022-09-28T12:41:42.918Z,96471.22
2022-09-28T12:45:02.192Z,96476.28
2022-09-28T12:48:33.261Z,96485.22
2022-09-28T12:51:48.416Z,96480.84
2022-09-28T12:58:28.722Z,96475.69
2022-09-28T13:01:46.769Z,96487.13
2022-09-28T13:05:05.236Z,96486.34
2022-09-28T13:08:14.832Z,96479.59
2022-09-28T13:11:27.350Z,96474.44
2022-09-28T13:14:53.934Z,96480.75
2022-09-28T13:18:07.544Z,96482.75
2022-09-28T13:21:19.629Z,96471.84
2022-09-28T13:24:32.679Z,96470.56
2022-09-28T13:27:45.396Z,96475.88
2022-09-28T13:30:50.275Z,96464.63
2022-09-28T13:33:54.171Z,96469.13
2022-09-28T13:37:19.895Z,96472.97
2022-09-28T13:40:58.758Z,96470.38
2022-09-28T13:44:27.652Z,96469.34
2022-09-28T13:47:53.780Z,96472.09
2022-09-28T13:51:10.725Z,96466.13
2022-09-28T13:54:41.512Z,96468.56
2022-09-28T13:57:51.540Z,96472.16
2022-09-28T14:01:00.598Z,96472.16
2022-09-28T14:04:17.477Z,96486.13
2022-09-28T14:07:22.921Z,96475.06
2022-09-28T14:10:51.990Z,96483.63
2022-09-28T14:14:03.070Z,96481.72
2022-09-28T14:17:50.376Z,96487.81
2022-09-28T14:21:08.013Z,96484.78
2022-09-28T14:24:30.187Z,96485.31
2022-09-28T14:28:01.859Z,96489.91
2022-09-28T14:31:10.580Z,96490.00
2022-09-28T14:34:35.136Z,96495.06
2022-09-28T14:37:57.325Z,96495.41
2022-09-28T14:41:11.510Z,96492.25
2022-09-28T14:44:16.665Z,96502.63
2022-09-28T14:47:27.267Z,96504.38
2022-09-28T14:50:31.213Z,96507.81
2022-09-28T14:53:40.208Z,96499.91
2022-09-28T14:56:45.613Z,96505.22
2022-09-28T14:59:50.006Z,96503.06
2022-09-28T15:02:54.989Z,96511.13
2022-09-28T15:05:58.572Z,96513.03
2022-09-28T15:09:01.224Z,96517.22
2022-09-28T15:12:05.852Z,96514.13
2022-09-28T15:15:28.956Z,96513.78
2022-09-28T15:18:57.775Z,96504.63
2022-09-28T15:22:00.853Z,96508.63
2022-09-28T15:25:13.216Z,96506.16
2022-09-28T15:28:22.046Z,96510.53
2022-09-28T15:31:27.939Z,96511.13
2022-09-28T15:34:50.779Z,96525.50
2022-09-28T15:37:54.947Z,96518.41
2022-09-28T15:40:57.800Z,96518.50
2022-09-28T15:44:23.392Z,96523.66
2022-09-28T15:47:29.298Z,96521.03
2022-09-28T15:50:34.421Z,96520.47
2022-09-28T15:53:38.238Z,96523.06
2022-09-28T15:56:53.575Z,96531.47
2022-09-28T15:59:59.453Z,96531.25
2022-09-28T16:03:19.972Z,96539.97
2022-09-28T16:06:23.058Z,96528.97
2022-09-28T16:09:36.106Z,96536.59
2022-09-28T16:12:48.670Z,96529.50
2022-09-28T16:15:58.066Z,96536.88
2022-09-28T16:19:03.734Z,96535.28
2022-09-28T16:22:09.288Z,96538.66
2022-09-28T16:25:18.410Z,96537.84
2022-09-28T16:28:48.739Z,96540.03
2022-09-28T16:31:53.046Z,96536.81
2022-09-28T16:35:18.103Z,96546.22
2022-09-28T16:38:21.370Z,96545.28
2022-09-28T16:41:29.401Z,96538.97
2022-09-28T16:44:34.860Z,96549.16
2022-09-28T16:47:37.511Z,96547.28
2022-09-28T16:50:41.550Z,96537.72
2022-09-28T16:54:02.254Z,96555.38
2022-09-28T16:57:07.245Z,96543.59
2022-09-28T17:00:15.675Z,96549.06
2022-09-28T17:03:19.372Z,96551.97
2022-09-28T17:06:25.252Z,96554.44
2022-09-28T17:09:28.106Z,96555.75
2022-09-28T17:12:31.138Z,96560.81
2022-09-28T17:15:33.771Z,96563.22
2022-09-28T17:18:38.988Z,96569.09
2022-09-28T17:21:42.984Z,96569.25
2022-09-28T17:24:46.695Z,96565.00
2022-09-28T17:27:50.439Z,96575.31
2022-09-28T17:30:53.415Z,96579.22
2022-09-28T17:33:56.165Z,96588.38
2022-09-28T17:37:00.250Z,96588.84
2022-09-28T17:40:02.873Z,96587.72
2022-09-28T17:43:05.637Z,96594.03
2022-09-28T17:46:16.895Z,96594.97
2022-09-28T17:49:19.623Z,96604.75
2022-09-28T17:52:23.623Z,96602.03
2022-09-28T17:55:30.330Z,96603.44
2022-09-28T17:58:33.034Z,96597.91
2022-09-28T18:01:39.507Z,96605.63
2022-09-28T18:04:51.847Z,96614.91
2022-09-28T18:07:58.710Z,96608.91
2022-09-28T18:11:02.578Z,96607.94
2022-09-28T18:14:10.427Z,96611.22
2022-09-28T18:17:13.819Z,96617.00
2022-09-28T18:20:16.567Z,96614.44
2022-09-28T18:23:20.735Z,96626.38
2022-09-28T18:26:23.352Z,96633.28
2022-09-28T18:29:28.067Z,96628.38
2022-09-28T18:32:36.782Z,96632.47
2022-09-28T18:35:39.916Z,96640.63
2022-09-28T18:38:43.927Z,96643.91
2022-09-28T18:41:46.574Z,96642.13
2022-09-28T18:44:49.324Z,96645.75
2022-09-28T18:47:51.912Z,96657.19
2022-09-28T18:50:54.513Z,96660.75
2022-09-28T18:53:58.623Z,96664.72
2022-09-28T18:57:01.256Z,96668.19
2022-09-28T19:00:06.779Z,96665.34
2022-09-28T19:03:14.294Z,96667.63
2022-09-28T19:06:17.772Z,96672.97
2022-09-28T19:09:26.944Z,96672.50
2022-09-28T19:12:32.141Z,96669.81
2022-09-28T19:15:37.269Z,96668.25
2022-09-28T19:18:45.201Z,96676.38
2022-09-28T19:21:51.583Z,96676.19
2022-09-28T19:25:02.892Z,96671.16
2022-09-28T19:28:06.995Z,96674.44
2022-09-28T19:31:13.353Z,96679.31
2022-09-28T19:34:19.025Z,96679.31
2022-09-28T19:37:25.803Z,96687.13
2022-09-28T19:40:31.046Z,96691.41
2022-09-28T19:43:35.159Z,96692.47
2022-09-28T19:46:41.937Z,96694.97
2022-09-28T19:49:47.124Z,96695.28
2022-09-28T19:52:53.640Z,96701.50
2022-09-28T19:56:05.798Z,96706.59
2022-09-28T19:59:11.089Z,96702.13
2022-09-28T20:02:18.084Z,96704.00
2022-09-28T20:05:22.067Z,96703.19
2022-09-28T20:08:27.602Z,96707.56
2022-09-28T20:11:34.904Z,96715.59
2022-09-28T20:14:40.440Z,96717.50
2022-09-28T20:17:44.851Z,96717.81
2022-09-28T20:20:48.975Z,96713.84
2022-09-28T20:23:54.078Z,96716.00
2022-09-28T20:26:59.037Z,96719.50
2022-09-28T20:30:05.931Z,96713.03
2022-09-28T20:33:09.909Z,96710.06
2022-09-28T20:36:16.311Z,96716.00
2022-09-28T20:39:21.619Z,96721.94
2022-09-28T20:42:28.084Z,96717.69
2022-09-28T20:45:33.228Z,96718.00
2022-09-28T20:48:38.950Z,96723.94
2022-09-28T20:51:44.579Z,96732.25
2022-09-28T20:54:49.829Z,96732.56
2022-09-28T20:57:56.533Z,96728.78
2022-09-28T21:01:08.257Z,96726.72
2022-09-28T21:04:13.843Z,96721.47
2022-09-28T21:07:20.525Z,96737.31
2022-09-28T21:10:30.910Z,96734.34
2022-09-28T21:13:37.789Z,96725.22
2022-09-28T21:16:44.857Z,96730.78
2022-09-28T21:20:18.224Z,96726.81
2022-09-28T21:23:25.274Z,96721.69
2022-09-28T21:26:32.288Z,96728.28
2022-09-28T21:29:38.515Z,96722.06
2022-09-28T21:32:43.616Z,96720.38
2022-09-28T21:35:48.808Z,96718.25
2022-09-28T21:38:54.131Z,96714.31
2022-09-28T21:41:59.387Z,96713.22
2022-09-28T21:45:06.382Z,96705.19
2022-09-28T21:48:11.716Z,96711.66
2022-09-28T21:51:17.714Z,96719.88
2022-09-28T21:54:22.641Z,96712.91
2022-09-28T21:57:27.515Z,96710.25
2022-09-28T22:00:34.358Z,96713.22
2022-09-28T22:03:40.419Z,96701.53
2022-09-28T22:06:45.794Z,96710.66
2022-09-28T22:09:53.483Z,96706.88
2022-09-28T22:12:58.925Z,96705.31
2022-09-28T22:16:05.879Z,96711.25
2022-09-28T22:19:11.025Z,96702.16
2022-09-28T22:22:18.518Z,96705.81
2022-09-28T22:25:23.663Z,96706.69
2022-09-28T22:28:28.924Z,96708.69
2022-09-28T22:31:38.985Z,96702.53
2022-09-28T22:34:44.898Z,96719.19
2022-09-28T22:37:50.264Z,96709.31
2022-09-28T22:40:58.152Z,96700.00
2022-09-28T22:44:03.520Z,96704.84
2022-09-28T22:47:10.239Z,96701.56
2022-09-28T22:50:15.422Z,96708.81
2022-09-28T22:53:20.607Z,96696.03
2022-09-28T22:56:26.216Z,96701.19
2022-09-28T22:59:31.164Z,96706.41
2022-09-28T23:02:37.678Z,96705.84
2022-09-28T23:05:42.699Z,96708.50
2022-09-28T23:08:48.906Z,96716.13
2022-09-28T23:11:54.098Z,96707.13
2022-09-28T23:14:59.327Z,96709.19
2022-09-28T23:18:06.092Z,96718.50
2022-09-28T23:21:21.989Z,96717.19
2022-09-28T23:24:26.936Z,96715.50
2022-09-28T23:27:32.094Z,96717.94
2022-09-28T23:30:37.722Z,96715.63
2022-09-28T23:33:44.730Z,96715.94
2022-09-28T23:36:49.912Z,96709.00
2022-09-28T23:39:55.093Z,96709.59
2022-09-28T23:43:00.193Z,96701.38
2022-09-28T23:46:08.057Z,96710.25
2022-09-28T23:49:14.879Z,96708.19
2022-09-28T23:52:20.358Z,96702.91
2022-09-28T23:55:25.716Z,96710.34
2022-09-28T23:58:33.843Z,96710.16
